sensor_id;sensor_type;location;lat;lon;timestamp;pressure;altitude;pressure_sealevel;temperature;humidity
21779;BME280;11050;52.222;20.916;2023-04-28T00:02:07;100623.63;;;5.19;87.94
21779;BME280;11050;52.222;20.916;2023-04-28T00:04:33;100621.78;;;5.13;88.16
21779;BME280;11050;52.222;20.916;2023-04-28T00:06:58;100620.94;;;5.06;89.04
21779;BME280;11050;52.222;20.916;2023-04-28T00:09:24;100623.03;;;4.97;89.51
21779;BME280;11050;52.222;20.916;2023-04-28T00:11:50;100615.91;;;4.90;91.11
21779;BME280;11050;52.222;20.916;2023-04-28T00:14:16;100621.34;;;4.83;91.45
21779;BME280;11050;52.222;20.916;2023-04-28T00:16:41;100612.53;;;4.81;91.90
21779;BME280;11050;52.222;20.916;2023-04-28T00:19:07;100617.56;;;4.77;93.03
21779;BME280;11050;52.222;20.916;2023-04-28T00:21:33;100620.50;;;4.76;92.67
21779;BME280;11050;52.222;20.916;2023-04-28T00:23:59;100626.16;;;4.74;93.31
21779;BME280;11050;52.222;20.916;2023-04-28T00:26:25;100621.13;;;4.71;93.48
21779;BME280;11050;52.222;20.916;2023-04-28T00:28:50;100631.81;;;4.66;93.43
21779;BME280;11050;52.222;20.916;2023-04-28T00:31:16;100620.06;;;4.66;94.41
21779;BME280;11050;52.222;20.916;2023-04-28T00:33:43;100622.78;;;4.66;93.74
21779;BME280;11050;52.222;20.916;2023-04-28T00:36:10;100618.41;;;4.65;93.65
21779;BME280;11050;52.222;20.916;2023-04-28T00:38:36;100623.84;;;4.65;93.93
21779;BME280;11050;52.222;20.916;2023-04-28T00:41:03;100630.31;;;4.64;94.55
21779;BME280;11050;52.222;20.916;2023-04-28T00:43:28;100621.75;;;4.60;94.40
21779;BME280;11050;52.222;20.916;2023-04-28T00:45:54;100619.66;;;4.62;94.38
21779;BME280;11050;52.222;20.916;2023-04-28T00:48:21;100627.19;;;4.60;94.97
21779;BME280;11050;52.222;20.916;2023-04-28T00:50:48;100630.97;;;4.59;94.94
21779;BME280;11050;52.222;20.916;2023-04-28T00:53:14;100623.41;;;4.55;94.97
21779;BME280;11050;52.222;20.916;2023-04-28T00:55:40;100628.66;;;4.50;95.63
21779;BME280;11050;52.222;20.916;2023-04-28T00:58:06;100627.16;;;4.47;95.63
21779;BME280;11050;52.222;20.916;2023-04-28T01:00:33;100626.97;;;4.42;95.45
21779;BME280;11050;52.222;20.916;2023-04-28T01:02:59;100614.38;;;4.35;95.85
21779;BME280;11050;52.222;20.916;2023-04-28T01:05:27;100623.19;;;4.43;96.23
21779;BME280;11050;52.222;20.916;2023-04-28T01:07:53;100622.38;;;4.43;97.17
21779;BME280;11050;52.222;20.916;2023-04-28T01:10:19;100625.09;;;4.43;96.79
21779;BME280;11050;52.222;20.916;2023-04-28T01:12:45;100633.25;;;4.43;96.98
21779;BME280;11050;52.222;20.916;2023-04-28T01:15:16;100634.91;;;4.44;97.11
21779;BME280;11050;52.222;20.916;2023-04-28T01:17:42;100637.63;;;4.44;97.13
21779;BME280;11050;52.222;20.916;2023-04-28T01:20:09;100634.91;;;4.44;97.36
21779;BME280;11050;52.222;20.916;2023-04-28T01:22:35;100622.75;;;4.40;97.18
21779;BME280;11050;52.222;20.916;2023-04-28T01:25:01;100631.16;;;4.45;98.10
21779;BME280;11050;52.222;20.916;2023-04-28T01:27:28;100634.28;;;4.42;97.67
21779;BME280;11050;52.222;20.916;2023-04-28T01:29:54;100631.78;;;4.40;97.58
21779;BME280;11050;52.222;20.916;2023-04-28T01:32:20;100635.34;;;4.41;97.80
21779;BME280;11050;52.222;20.916;2023-04-28T01:34:46;100639.09;;;4.40;98.12
21779;BME280;11050;52.222;20.916;2023-04-28T01:37:12;100634.69;;;4.39;98.75
21779;BME280;11050;52.222;20.916;2023-04-28T01:39:37;100641.16;;;4.38;97.89
21779;BME280;11050;52.222;20.916;2023-04-28T01:42:03;100640.53;;;4.36;99.02
21779;BME280;11050;52.222;20.916;2023-04-28T01:44:29;100642.63;;;4.34;98.65
21779;BME280;11050;52.222;20.916;2023-04-28T01:46:55;100639.25;;;4.32;99.09
21779;BME280;11050;52.222;20.916;2023-04-28T01:49:21;100643.47;;;4.28;99.25
21779;BME280;11050;52.222;20.916;2023-04-28T01:51:46;100638.22;;;4.26;98.94
21779;BME280;11050;52.222;20.916;2023-04-28T01:54:12;100646.78;;;4.23;99.83
21779;BME280;11050;52.222;20.916;2023-04-28T01:56:38;100644.28;;;4.22;99.64
21779;BME280;11050;52.222;20.916;2023-04-28T01:59:03;100642.16;;;4.17;100.00
21779;BME280;11050;52.222;20.916;2023-04-28T02:01:29;100647.16;;;4.14;100.00
21779;BME280;11050;52.222;20.916;2023-04-28T02:03:55;100632.50;;;4.08;100.00
21779;BME280;11050;52.222;20.916;2023-04-28T02:06:20;100645.91;;;4.10;100.00
21779;BME280;11050;52.222;20.916;2023-04-28T02:08:46;100643.38;;;4.08;100.00
21779;BME280;11050;52.222;20.916;2023-04-28T02:11:12;100638.75;;;4.02;100.00
21779;BME280;11050;52.222;20.916;2023-04-28T02:13:38;100637.91;;;3.95;100.00
21779;BME280;11050;52.222;20.916;2023-04-28T02:16:04;100636.03;;;3.96;100.00
21779;BME280;11050;52.222;20.916;2023-04-28T02:18:29;100639.13;;;3.93;100.00
21779;BME280;11050;52.222;20.916;2023-04-28T02:20:55;100638.72;;;3.89;100.00
21779;BME280;11050;52.222;20.916;2023-04-28T02:23:21;100642.47;;;3.88;100.00
21779;BME280;11050;52.222;20.916;2023-04-28T02:25:47;100639.34;;;3.84;100.00
21779;BME280;11050;52.222;20.916;2023-04-28T02:28:12;100628.63;;;3.83;100.00
21779;BME280;11050;52.222;20.916;2023-04-28T02:30:38;100636.16;;;3.81;100.00
21779;BME280;11050;52.222;20.916;2023-04-28T02:33:04;100641.78;;;3.79;100.00
21779;BME280;11050;52.222;20.916;2023-04-28T02:35:30;100640.72;;;3.74;100.00
21779;BME280;11050;52.222;20.916;2023-04-28T02:37:56;100639.06;;;3.73;100.00
21779;BME280;11050;52.222;20.916;2023-04-28T02:40:21;100646.16;;;3.74;100.00
21779;BME280;11050;52.222;20.916;2023-04-28T02:42:47;100640.72;;;3.74;100.00
21779;BME280;11050;52.222;20.916;2023-04-28T02:45:13;100647.84;;;3.75;100.00
21779;BME280;11050;52.222;20.916;2023-04-28T02:47:39;100651.00;;;3.78;100.00
21779;BME280;11050;52.222;20.916;2023-04-28T02:50:05;100632.19;;;3.77;100.00
21779;BME280;11050;52.222;20.916;2023-04-28T02:52:31;100642.22;;;3.83;100.00
21779;BME280;11050;52.222;20.916;2023-04-28T02:54:57;100644.56;;;3.86;100.00
21779;BME280;11050;52.222;20.916;2023-04-28T02:57:23;100639.56;;;3.90;100.00
21779;BME280;11050;52.222;20.916;2023-04-28T02:59:49;100650.00;;;3.93;100.00
21779;BME280;11050;52.222;20.916;2023-04-28T03:02:15;100658.59;;;3.96;100.00
21779;BME280;11050;52.222;20.916;2023-04-28T03:04:41;100650.06;;;3.99;100.00
21779;BME280;11050;52.222;20.916;2023-04-28T03:07:07;100646.72;;;4.04;100.00
21779;BME280;11050;52.222;20.916;2023-04-28T03:09:33;100651.75;;;4.07;100.00
21779;BME280;11050;52.222;20.916;2023-04-28T03:11:59;100655.75;;;4.11;100.00
21779;BME280;11050;52.222;20.916;2023-04-28T03:14:25;100651.75;;;4.13;100.00
21779;BME280;11050;52.222;20.916;2023-04-28T03:16:51;100660.56;;;4.15;100.00
21779;BME280;11050;52.222;20.916;2023-04-28T03:19:16;100657.63;;;4.17;100.00
21779;BME280;11050;52.222;20.916;2023-04-28T03:21:43;100650.34;;;4.24;100.00
21779;BME280;11050;52.222;20.916;2023-04-28T03:24:08;100657.06;;;4.28;100.00
21779;BME280;11050;52.222;20.916;2023-04-28T03:26:34;100643.84;;;4.25;100.00
21779;BME280;11050;52.222;20.916;2023-04-28T03:29:00;100649.72;;;4.28;100.00
21779;BME280;11050;52.222;20.916;2023-04-28T03:31:26;100665.66;;;4.31;100.00
21779;BME280;11050;52.222;20.916;2023-04-28T03:33:52;100666.25;;;4.27;100.00
21779;BME280;11050;52.222;20.916;2023-04-28T03:36:17;100661.88;;;4.26;100.00
21779;BME280;11050;52.222;20.916;2023-04-28T03:38:43;100661.03;;;4.25;100.00
21779;BME280;11050;52.222;20.916;2023-04-28T03:41:09;100664.16;;;4.29;100.00
21779;BME280;11050;52.222;20.916;2023-04-28T03:43:35;100661.22;;;4.24;100.00
21779;BME280;11050;52.222;20.916;2023-04-28T03:46:03;100663.31;;;4.22;100.00
21779;BME280;11050;52.222;20.916;2023-04-28T03:48:29;100663.91;;;4.17;100.00
21779;BME280;11050;52.222;20.916;2023-04-28T03:50:54;100659.09;;;4.13;100.00
21779;BME280;11050;52.222;20.916;2023-04-28T03:53:20;100664.34;;;4.14;100.00
21779;BME280;11050;52.222;20.916;2023-04-28T03:55:46;100664.75;;;4.18;100.00
21779;BME280;11050;52.222;20.916;2023-04-28T03:58:12;100668.31;;;4.18;100.00
21779;BME280;11050;52.222;20.916;2023-04-28T04:00:38;100664.78;;;4.24;100.00
21779;BME280;11050;52.222;20.916;2023-04-28T04:03:03;100643.22;;;4.16;100.00
21779;BME280;11050;52.222;20.916;2023-04-28T04:05:29;100668.16;;;4.33;100.00
21779;BME280;11050;52.222;20.916;2023-04-28T04:07:55;100660.22;;;4.38;100.00
21779;BME280;11050;52.222;20.916;2023-04-28T04:10:20;100664.63;;;4.39;100.00
21779;BME280;11050;52.222;20.916;2023-04-28T04:12:46;100665.69;;;4.44;100.00
21779;BME280;11050;52.222;20.916;2023-04-28T04:15:12;100666.75;;;4.50;100.00
21779;BME280;11050;52.222;20.916;2023-04-28T04:17:38;100672.81;;;4.52;100.00
21779;BME280;11050;52.222;20.916;2023-04-28T04:20:05;100675.75;;;4.57;100.00
21779;BME280;11050;52.222;20.916;2023-04-28T04:22:31;100672.00;;;4.64;100.00
21779;BME280;11050;52.222;20.916;2023-04-28T04:24:57;100683.56;;;4.73;100.00
21779;BME280;11050;52.222;20.916;2023-04-28T04:27:22;100665.31;;;4.73;100.00
21779;BME280;11050;52.222;20.916;2023-04-28T04:29:48;100679.78;;;4.87;99.96
21779;BME280;11050;52.222;20.916;2023-04-28T04:32:14;100689.84;;;4.93;99.08
21779;BME280;11050;52.222;20.916;2023-04-28T04:34:39;100693.19;;;5.02;98.60
21779;BME280;11050;52.222;20.916;2023-04-28T04:37:05;100688.41;;;5.10;98.58
21779;BME280;11050;52.222;20.916;2023-04-28T04:39:31;100689.03;;;5.19;97.19
21779;BME280;11050;52.222;20.916;2023-04-28T04:41:57;100687.97;;;5.26;97.02
21779;BME280;11050;52.222;20.916;2023-04-28T04:44:23;100681.72;;;5.26;96.43
21779;BME280;11050;52.222;20.916;2023-04-28T04:46:49;100685.66;;;5.36;96.99
21779;BME280;11050;52.222;20.916;2023-04-28T04:49:14;100696.78;;;5.48;96.90
21779;BME280;11050;52.222;20.916;2023-04-28T04:51:40;100703.91;;;5.55;95.61
21779;BME280;11050;52.222;20.916;2023-04-28T04:54:06;100704.31;;;5.65;94.39
21779;BME280;11050;52.222;20.916;2023-04-28T04:56:31;100709.72;;;5.72;92.96
21779;BME280;11050;52.222;20.916;2023-04-28T04:58:57;100703.88;;;5.75;91.96
21779;BME280;11050;52.222;20.916;2023-04-28T05:01:23;100706.78;;;5.80;91.34
21779;BME280;11050;52.222;20.916;2023-04-28T05:03:49;100701.13;;;5.82;91.52
21779;BME280;11050;52.222;20.916;2023-04-28T05:06:14;100711.19;;;5.94;91.47
21779;BME280;11050;52.222;20.916;2023-04-28T05:08:40;100706.13;;;6.04;89.68
21779;BME280;11050;52.222;20.916;2023-04-28T05:11:06;100706.13;;;6.11;88.20
21779;BME280;11050;52.222;20.916;2023-04-28T05:13:32;100702.50;;;6.17;87.57
21779;BME280;11050;52.222;20.916;2023-04-28T05:15:57;100717.16;;;6.22;87.84
21779;BME280;11050;52.222;20.916;2023-04-28T05:18:23;100716.72;;;6.32;86.80
21779;BME280;11050;52.222;20.916;2023-04-28T05:20:49;100705.34;;;6.41;85.93
21779;BME280;11050;52.222;20.916;2023-04-28T05:23:15;100713.28;;;6.49;85.35
21779;BME280;11050;52.222;20.916;2023-04-28T05:25:41;100716.63;;;6.58;85.97
21779;BME280;11050;52.222;20.916;2023-04-28T05:28:09;100709.22;;;6.65;84.69
21779;BME280;11050;52.222;20.916;2023-04-28T05:30:35;100696.81;;;6.69;84.07
21779;BME280;11050;52.222;20.916;2023-04-28T05:33:00;100716.63;;;6.89;82.91
21779;BME280;11050;52.222;20.916;2023-04-28T05:35:26;100707.59;;;6.89;82.22
21779;BME280;11050;52.222;20.916;2023-04-28T05:37:52;100709.19;;;7.03;80.75
21779;BME280;11050;52.222;20.916;2023-04-28T05:40:18;100708.88;;;7.17;81.04
21779;BME280;11050;52.222;20.916;2023-04-28T05:42:43;100714.47;;;7.29;79.51
21779;BME280;11050;52.222;20.916;2023-04-28T05:45:10;100711.63;;;7.42;78.46
21779;BME280;11050;52.222;20.916;2023-04-28T05:47:36;100716.81;;;7.50;78.52
21779;BME280;11050;52.222;20.916;2023-04-28T05:50:02;100712.72;;;7.59;76.62
21779;BME280;11050;52.222;20.916;2023-04-28T05:52:28;100713.25;;;7.67;77.50
21779;BME280;11050;52.222;20.916;2023-04-28T05:54:53;100714.81;;;7.82;76.92
21779;BME280;11050;52.222;20.916;2023-04-28T05:57:19;100727.75;;;7.93;74.55
21779;BME280;11050;52.222;20.916;2023-04-28T05:59:45;100723.41;;;8.03;74.16
21779;BME280;11050;52.222;20.916;2023-04-28T06:02:11;100719.53;;;8.11;74.59
21779;BME280;11050;52.222;20.916;2023-04-28T06:04:37;100719.25;;;8.19;74.33
21779;BME280;11050;52.222;20.916;2023-04-28T06:07:03;100721.84;;;8.32;72.96
21779;BME280;11050;52.222;20.916;2023-04-28T06:09:29;100729.31;;;8.43;72.17
21779;BME280;11050;52.222;20.916;2023-04-28T06:11:55;100724.97;;;8.53;71.41
21779;BME280;11050;52.222;20.916;2023-04-28T06:14:22;100721.81;;;8.68;70.91
21779;BME280;11050;52.222;20.916;2023-04-28T06:16:48;100727.00;;;8.76;70.48
21779;BME280;11050;52.222;20.916;2023-04-28T06:19:15;100721.31;;;8.89;69.65
21779;BME280;11050;52.222;20.916;2023-04-28T06:21:44;100729.34;;;9.02;69.01
21779;BME280;11050;52.222;20.916;2023-04-28T06:24:10;100724.34;;;9.11;69.15
21779;BME280;11050;52.222;20.916;2023-04-28T06:26:35;100725.47;;;9.21;66.70
21779;BME280;11050;52.222;20.916;2023-04-28T06:29:02;100726.72;;;9.37;67.12
21779;BME280;11050;52.222;20.916;2023-04-28T06:31:28;100729.44;;;9.48;65.39
21779;BME280;11050;52.222;20.916;2023-04-28T06:33:54;100720.28;;;9.66;64.83
21779;BME280;11050;52.222;20.916;2023-04-28T06:36:19;100726.50;;;9.85;63.37
21779;BME280;11050;52.222;20.916;2023-04-28T06:38:45;100723.88;;;9.90;62.60
21779;BME280;11050;52.222;20.916;2023-04-28T06:41:11;100727.69;;;10.00;62.02
21779;BME280;11050;52.222;20.916;2023-04-28T06:43:37;100734.06;;;10.12;60.61
21779;BME280;11050;52.222;20.916;2023-04-28T06:46:03;100727.78;;;10.05;60.53
21779;BME280;11050;52.222;20.916;2023-04-28T06:48:29;100727.81;;;10.17;61.74
21779;BME280;11050;52.222;20.916;2023-04-28T06:50:54;100730.44;;;10.35;61.14
21779;BME280;11050;52.222;20.916;2023-04-28T06:53:20;100731.34;;;10.52;61.02
21779;BME280;11050;52.222;20.916;2023-04-28T06:55:46;100729.47;;;10.69;59.49
21779;BME280;11050;52.222;20.916;2023-04-28T06:58:12;100729.06;;;10.89;59.43
21779;BME280;11050;52.222;20.916;2023-04-28T07:00:38;100731.19;;;10.98;58.65
21779;BME280;11050;52.222;20.916;2023-04-28T07:03:04;100720.19;;;10.98;57.05
21779;BME280;11050;52.222;20.916;2023-04-28T07:05:30;100733.97;;;11.15;55.17
21779;BME280;11050;52.222;20.916;2023-04-28T07:07:56;100730.94;;;11.16;53.92
21779;BME280;11050;52.222;20.916;2023-04-28T07:10:22;100724.97;;;11.19;54.40
21779;BME280;11050;52.222;20.916;2023-04-28T07:12:49;100738.00;;;11.40;54.02
21779;BME280;11050;52.222;20.916;2023-04-28T07:15:16;100732.91;;;11.49;51.38
21779;BME280;11050;52.222;20.916;2023-04-28T07:17:42;100729.50;;;11.59;49.36
21779;BME280;11050;52.222;20.916;2023-04-28T07:20:08;100728.88;;;11.68;49.78
21779;BME280;11050;52.222;20.916;2023-04-28T07:22:34;100722.69;;;11.78;47.93
21779;BME280;11050;52.222;20.916;2023-04-28T07:25:00;100714.59;;;11.71;45.88
21779;BME280;11050;52.222;20.916;2023-04-28T07:27:25;100724.94;;;11.81;44.80
21779;BME280;11050;52.222;20.916;2023-04-28T07:29:51;100726.94;;;11.85;44.52
21779;BME280;11050;52.222;20.916;2023-04-28T07:32:17;100721.44;;;11.85;43.98
21779;BME280;11050;52.222;20.916;2023-04-28T07:34:43;100716.78;;;11.86;45.05
21779;BME280;11050;52.222;20.916;2023-04-28T07:37:08;100720.19;;;11.93;44.53
21779;BME280;11050;52.222;20.916;2023-04-28T07:39:36;100724.16;;;12.02;44.17
21779;BME280;11050;52.222;20.916;2023-04-28T07:42:03;100709.06;;;12.04;43.03
21779;BME280;11050;52.222;20.916;2023-04-28T07:44:30;100702.06;;;12.18;43.97
21779;BME280;11050;52.222;20.916;2023-04-28T07:46:56;100712.28;;;12.39;42.66
21779;BME280;11050;52.222;20.916;2023-04-28T07:49:23;100701.66;;;12.48;41.80
21779;BME280;11050;52.222;20.916;2023-04-28T07:51:49;100709.41;;;12.51;41.85
21779;BME280;11050;52.222;20.916;2023-04-28T07:54:17;100699.31;;;12.62;40.06
21779;BME280;11050;52.222;20.916;2023-04-28T07:56:43;100704.94;;;12.67;40.47
21779;BME280;11050;52.222;20.916;2023-04-28T07:59:09;100703.59;;;12.48;38.59
21779;BME280;11050;52.222;20.916;2023-04-28T08:01:35;100700.84;;;12.09;38.62
21779;BME280;11050;52.222;20.916;2023-04-28T08:04:00;100695.72;;;11.96;39.81
21779;BME280;11050;52.222;20.916;2023-04-28T08:06:26;100699.56;;;11.95;38.64
21779;BME280;11050;52.222;20.916;2023-04-28T08:08:53;100687.13;;;11.93;38.32
21779;BME280;11050;52.222;20.916;2023-04-28T08:11:19;100692.22;;;12.01;38.68
21779;BME280;11050;52.222;20.916;2023-04-28T08:13:45;100691.53;;;11.94;39.48
21779;BME280;11050;52.222;20.916;2023-04-28T08:16:12;100686.53;;;11.91;40.24
21779;BME280;11050;52.222;20.916;2023-04-28T08:18:38;100693.69;;;11.92;39.82
21779;BME280;11050;52.222;20.916;2023-04-28T08:21:04;100687.53;;;11.85;36.02
21779;BME280;11050;52.222;20.916;2023-04-28T08:23:30;100692.06;;;11.91;35.54
21779;BME280;11050;52.222;20.916;2023-04-28T08:25:57;100690.38;;;11.90;35.40
21779;BME280;11050;52.222;20.916;2023-04-28T08:28:22;100682.69;;;11.92;35.83
21779;BME280;11050;52.222;20.916;2023-04-28T08:30:48;100677.66;;;12.05;35.29
21779;BME280;11050;52.222;20.916;2023-04-28T08:33:14;100684.53;;;12.46;33.67
21779;BME280;11050;52.222;20.916;2023-04-28T08:35:40;100671.06;;;12.98;33.66
21779;BME280;11050;52.222;20.916;2023-04-28T08:38:06;100674.41;;;13.26;33.77
21779;BME280;11050;52.222;20.916;2023-04-28T08:40:32;100674.09;;;13.55;32.49
21779;BME280;11050;52.222;20.916;2023-04-28T08:42:59;100682.50;;;13.38;33.03
21779;BME280;11050;52.222;20.916;2023-04-28T08:45:25;100673.94;;;13.35;31.53
21779;BME280;11050;52.222;20.916;2023-04-28T08:47:57;100681.41;;;13.39;31.44
21779;BME280;11050;52.222;20.916;2023-04-28T08:50:27;100668.41;;;13.35;31.49
21779;BME280;11050;52.222;20.916;2023-04-28T08:52:56;100661.69;;;13.25;33.08
21779;BME280;11050;52.222;20.916;2023-04-28T08:55:23;100665.81;;;13.23;33.27
21779;BME280;11050;52.222;20.916;2023-04-28T08:57:50;100667.75;;;13.22;33.41
21779;BME280;11050;52.222;20.916;2023-04-28T09:00:16;100671.97;;;13.35;32.83
21779;BME280;11050;52.222;20.916;2023-04-28T09:02:42;100659.56;;;13.32;32.76
21779;BME280;11050;52.222;20.916;2023-04-28T09:05:11;100664.25;;;13.32;32.20
21779;BME280;11050;52.222;20.916;2023-04-28T09:07:37;100664.19;;;13.27;33.12
21779;BME280;11050;52.222;20.916;2023-04-28T09:12:43;100662.13;;;13.44;31.97
21779;BME280;11050;52.222;20.916;2023-04-28T09:15:09;100655.91;;;13.59;31.73
21779;BME280;11050;52.222;20.916;2023-04-28T09:17:49;100651.25;;;13.69;32.13
21779;BME280;11050;52.222;20.916;2023-04-28T09:20:23;100648.00;;;13.77;31.87
21779;BME280;11050;52.222;20.916;2023-04-28T09:22:51;100642.47;;;13.77;31.63
21779;BME280;11050;52.222;20.916;2023-04-28T09:25:19;100658.28;;;13.87;31.39
21779;BME280;11050;52.222;20.916;2023-04-28T09:27:46;100654.47;;;13.93;31.37
21779;BME280;11050;52.222;20.916;2023-04-28T09:30:12;100653.84;;;13.86;31.04
21779;BME280;11050;52.222;20.916;2023-04-28T09:32:38;100650.84;;;13.87;31.20
21779;BME280;11050;52.222;20.916;2023-04-28T09:35:05;100648.84;;;13.78;31.41
21779;BME280;11050;52.222;20.916;2023-04-28T09:37:33;100648.78;;;13.73;31.70
21779;BME280;11050;52.222;20.916;2023-04-28T09:40:17;100642.13;;;13.64;31.08
21779;BME280;11050;52.222;20.916;2023-04-28T09:42:43;100633.53;;;13.60;31.56
21779;BME280;11050;52.222;20.916;2023-04-28T09:45:14;100634.97;;;13.68;31.32
21779;BME280;11050;52.222;20.916;2023-04-28T09:47:45;100633.94;;;13.79;31.50
21779;BME280;11050;52.222;20.916;2023-04-28T09:50:14;100640.94;;;13.91;31.67
21779;BME280;11050;52.222;20.916;2023-04-28T09:52:55;100633.81;;;14.10;31.34
21779;BME280;11050;52.222;20.916;2023-04-28T09:55:23;100623.34;;;14.12;31.22
21779;BME280;11050;52.222;20.916;2023-04-28T09:57:53;100622.16;;;13.98;31.43
21779;BME280;11050;52.222;20.916;2023-04-28T10:00:19;100615.25;;;13.96;32.01
21779;BME280;11050;52.222;20.916;2023-04-28T10:02:48;100619.16;;;14.05;32.76
21779;BME280;11050;52.222;20.916;2023-04-28T10:05:15;100610.06;;;14.14;32.58
21779;BME280;11050;52.222;20.916;2023-04-28T10:07:41;100602.69;;;14.25;30.62
21779;BME280;11050;52.222;20.916;2023-04-28T10:10:08;100599.44;;;14.43;30.95
21779;BME280;11050;52.222;20.916;2023-04-28T10:12:34;100599.28;;;14.95;31.00
21779;BME280;11050;52.222;20.916;2023-04-28T10:15:03;100587.06;;;15.31;30.00
21779;BME280;11050;52.222;20.916;2023-04-28T10:17:29;100591.28;;;15.44;30.47
21779;BME280;11050;52.222;20.916;2023-04-28T10:19:56;100586.28;;;15.46;31.43
21779;BME280;11050;52.222;20.916;2023-04-28T10:25:42;100586.25;;;15.26;31.00
21779;BME280;11050;52.222;20.916;2023-04-28T10:28:09;100581.28;;;15.17;31.52
21779;BME280;11050;52.222;20.916;2023-04-28T10:30:36;100574.34;;;15.30;32.35
21779;BME280;11050;52.222;20.916;2023-04-28T10:38:06;100573.19;;;15.81;31.21
21779;BME280;11050;52.222;20.916;2023-04-28T10:40:51;100571.50;;;15.85;31.35
21779;BME280;11050;52.222;20.916;2023-04-28T10:56:17;100565.50;;;19.31;26.64
21779;BME280;11050;52.222;20.916;2023-04-28T10:59:24;100565.16;;;20.24;25.15
21779;BME280;11050;52.222;20.916;2023-04-28T11:01:51;100559.28;;;20.25;24.51
21779;BME280;11050;52.222;20.916;2023-04-28T11:04:17;100567.63;;;20.52;23.60
21779;BME280;11050;52.222;20.916;2023-04-28T11:06:46;100552.75;;;20.79;21.77
21779;BME280;11050;52.222;20.916;2023-04-28T11:17:03;100553.03;;;18.77;22.94
21779;BME280;11050;52.222;20.916;2023-04-28T11:19:34;100537.25;;;19.05;23.49
21779;BME280;11050;52.222;20.916;2023-04-28T11:22:29;100546.53;;;20.46;22.09
21779;BME280;11050;52.222;20.916;2023-04-28T11:24:57;100543.19;;;21.16;20.78
21779;BME280;11050;52.222;20.916;2023-04-28T11:27:28;100538.34;;;20.86;20.75
21779;BME280;11050;52.222;20.916;2023-04-28T11:29:54;100540.63;;;20.84;21.15
21779;BME280;11050;52.222;20.916;2023-04-28T11:32:35;100538.59;;;21.11;20.88
21779;BME280;11050;52.222;20.916;2023-04-28T11:35:02;100535.75;;;21.86;20.09
21779;BME280;11050;52.222;20.916;2023-04-28T11:37:38;100532.19;;;22.85;19.42
21779;BME280;11050;52.222;20.916;2023-04-28T11:40:12;100519.31;;;23.81;18.68
21779;BME280;11050;52.222;20.916;2023-04-28T11:42:49;100526.88;;;24.48;17.11
21779;BME280;11050;52.222;20.916;2023-04-28T11:45:15;100531.28;;;24.07;17.53
21779;BME280;11050;52.222;20.916;2023-04-28T11:47:41;100529.63;;;23.51;17.63
21779;BME280;11050;52.222;20.916;2023-04-28T11:50:07;100529.75;;;23.72;17.66
21779;BME280;11050;52.222;20.916;2023-04-28T11:52:32;100528.88;;;23.17;18.50
21779;BME280;11050;52.222;20.916;2023-04-28T11:54:59;100536.06;;;22.41;19.03
21779;BME280;11050;52.222;20.916;2023-04-28T11:57:26;100537.97;;;21.76;19.11
21779;BME280;11050;52.222;20.916;2023-04-28T11:59:53;100527.94;;;21.00;20.27
21779;BME280;11050;52.222;20.916;2023-04-28T12:02:26;100530.47;;;20.52;20.80
21779;BME280;11050;52.222;20.916;2023-04-28T12:04:53;100524.00;;;20.29;21.19
21779;BME280;11050;52.222;20.916;2023-04-28T12:07:19;100528.56;;;20.12;21.63
21779;BME280;11050;52.222;20.916;2023-04-28T12:10:15;100523.19;;;19.88;21.46
21779;BME280;11050;52.222;20.916;2023-04-28T12:12:41;100518.31;;;19.80;21.74
21779;BME280;11050;52.222;20.916;2023-04-28T12:15:08;100502.53;;;19.75;21.60
21779;BME280;11050;52.222;20.916;2023-04-28T12:17:41;100511.41;;;19.64;21.46
21779;BME280;11050;52.222;20.916;2023-04-28T12:20:16;100507.91;;;19.58;21.63
21779;BME280;11050;52.222;20.916;2023-04-28T12:22:56;100500.06;;;20.86;21.52
21779;BME280;11050;52.222;20.916;2023-04-28T12:25:21;100498.38;;;22.73;18.80
21779;BME280;11050;52.222;20.916;2023-04-28T12:28:05;100499.34;;;24.12;17.66
21779;BME280;11050;52.222;20.916;2023-04-28T12:30:34;100498.47;;;25.11;17.14
21779;BME280;11050;52.222;20.916;2023-04-28T12:33:03;100495.66;;;24.49;17.38
21779;BME280;11050;52.222;20.916;2023-04-28T12:35:29;100488.25;;;24.86;16.75
21779;BME280;11050;52.222;20.916;2023-04-28T12:37:55;100492.28;;;25.74;16.78
21779;BME280;11050;52.222;20.916;2023-04-28T12:40:23;100483.44;;;26.72;15.64
21779;BME280;11050;52.222;20.916;2023-04-28T12:42:49;100484.63;;;27.70;14.95
21779;BME280;11050;52.222;20.916;2023-04-28T12:45:15;100488.84;;;28.07;14.75
21779;BME280;11050;52.222;20.916;2023-04-28T12:47:42;100485.38;;;28.48;14.70
21779;BME280;11050;52.222;20.916;2023-04-28T12:50:08;100479.94;;;28.93;14.10
21779;BME280;11050;52.222;20.916;2023-04-28T12:52:34;100483.03;;;29.46;13.64
21779;BME280;11050;52.222;20.916;2023-04-28T12:55:02;100482.09;;;29.19;13.28
21779;BME280;11050;52.222;20.916;2023-04-28T12:57:28;100483.78;;;28.66;14.05
21779;BME280;11050;52.222;20.916;2023-04-28T12:59:54;100483.31;;;26.81;15.12
21779;BME280;11050;52.222;20.916;2023-04-28T13:02:21;100473.16;;;25.11;16.97
21779;BME280;11050;52.222;20.916;2023-04-28T13:04:47;100469.88;;;24.47;17.81
21779;BME280;11050;52.222;20.916;2023-04-28T13:07:14;100464.84;;;25.47;17.30
21779;BME280;11050;52.222;20.916;2023-04-28T13:09:41;100465.84;;;26.75;15.87
21779;BME280;11050;52.222;20.916;2023-04-28T13:12:10;100454.19;;;27.94;15.61
21779;BME280;11050;52.222;20.916;2023-04-28T13:14:36;100458.00;;;29.10;14.41